sensor_id;sensor_type;location;lat;lon;timestamp;P1;durP1;ratioP1;P2;durP2;ratioP2
62863;SDS011;48954;59.950;11.014;2022-11-15T00:01:23;2.90;;;1.40;;
62863;SDS011;48954;59.950;11.014;2022-11-15T00:03:55;2.90;;;1.60;;
62863;SDS011;48954;59.950;11.014;2022-11-15T00:06:31;3.40;;;1.90;;
62863;SDS011;48954;59.950;11.014;2022-11-15T00:09:03;4.40;;;2.10;;
62863;SDS011;48954;59.950;11.014;2022-11-15T00:11:32;5.10;;;2.30;;
62863;SDS011;48954;59.950;11.014;2022-11-15T00:14:01;4.90;;;2.30;;
62863;SDS011;48954;59.950;11.014;2022-11-15T00:16:35;4.50;;;2.20;;
62863;SDS011;48954;59.950;11.014;2022-11-15T00:19:10;4.50;;;2.40;;
62863;SDS011;48954;59.950;11.014;2022-11-15T00:21:37;4.60;;;2.10;;
62863;SDS011;48954;59.950;11.014;2022-11-15T00:24:09;4.50;;;2.20;;
62863;SDS011;48954;59.950;11.014;2022-11-15T00:26:36;4.20;;;2.50;;
62863;SDS011;48954;59.950;11.014;2022-11-15T00:32:11;5.80;;;2.70;;
62863;SDS011;48954;59.950;11.014;2022-11-15T00:34:41;6.40;;;2.70;;
62863;SDS011;48954;59.950;11.014;2022-11-15T00:37:13;2.60;;;1.30;;
62863;SDS011;48954;59.950;11.014;2022-11-15T00:39:40;4.00;;;2.00;;
62863;SDS011;48954;59.950;11.014;2022-11-15T00:42:07;4.60;;;1.90;;
62863;SDS011;48954;59.950;11.014;2022-11-15T00:44:35;3.70;;;1.70;;
62863;SDS011;48954;59.950;11.014;2022-11-15T00:47:15;5.40;;;1.90;;
62863;SDS011;48954;59.950;11.014;2022-11-15T00:49:44;4.90;;;2.40;;
62863;SDS011;48954;59.950;11.014;2022-11-15T00:52:16;4.50;;;2.20;;
62863;SDS011;48954;59.950;11.014;2022-11-15T00:54:45;4.00;;;2.00;;
62863;SDS011;48954;59.950;11.014;2022-11-15T00:57:12;6.10;;;3.50;;
62863;SDS011;48954;59.950;11.014;2022-11-15T00:59:43;6.30;;;3.50;;
62863;SDS011;48954;59.950;11.014;2022-11-15T01:02:12;6.30;;;2.90;;
62863;SDS011;48954;59.950;11.014;2022-11-15T01:04:40;5.40;;;2.30;;
62863;SDS011;48954;59.950;11.014;2022-11-15T01:07:08;5.00;;;2.40;;
62863;SDS011;48954;59.950;11.014;2022-11-15T01:09:36;5.90;;;3.10;;
62863;SDS011;48954;59.950;11.014;2022-11-15T01:12:06;4.80;;;2.20;;
62863;SDS011;48954;59.950;11.014;2022-11-15T01:14:34;7.60;;;3.60;;
62863;SDS011;48954;59.950;11.014;2022-11-15T01:17:15;5.50;;;2.50;;
62863;SDS011;48954;59.950;11.014;2022-11-15T01:19:56;4.70;;;2.40;;
62863;SDS011;48954;59.950;11.014;2022-11-15T01:22:24;6.50;;;3.00;;
62863;SDS011;48954;59.950;11.014;2022-11-15T01:24:50;5.40;;;2.40;;
62863;SDS011;48954;59.950;11.014;2022-11-15T01:27:18;5.30;;;2.10;;
62863;SDS011;48954;59.950;11.014;2022-11-15T01:32:53;9.90;;;3.10;;
62863;SDS011;48954;59.950;11.014;2022-11-15T01:37:53;7.40;;;2.00;;
62863;SDS011;48954;59.950;11.014;2022-11-15T01:40:22;7.40;;;1.90;;
62863;SDS011;48954;59.950;11.014;2022-11-15T01:42:49;6.10;;;1.80;;
62863;SDS011;48954;59.950;11.014;2022-11-15T01:45:19;4.40;;;2.10;;
62863;SDS011;48954;59.950;11.014;2022-11-15T01:47:48;4.50;;;2.20;;
62863;SDS011;48954;59.950;11.014;2022-11-15T01:50:24;4.10;;;2.00;;
62863;SDS011;48954;59.950;11.014;2022-11-15T01:52:56;4.50;;;2.60;;
62863;SDS011;48954;59.950;11.014;2022-11-15T01:55:25;3.90;;;2.50;;
62863;SDS011;48954;59.950;11.014;2022-11-15T02:01:20;4.50;;;2.20;;
62863;SDS011;48954;59.950;11.014;2022-11-15T02:03:57;5.40;;;2.60;;
62863;SDS011;48954;59.950;11.014;2022-11-15T02:06:41;5.80;;;2.60;;
62863;SDS011;48954;59.950;11.014;2022-11-15T02:09:13;6.90;;;3.20;;
62863;SDS011;48954;59.950;11.014;2022-11-15T02:11:41;10.00;;;3.80;;
62863;SDS011;48954;59.950;11.014;2022-11-15T02:14:16;8.20;;;3.90;;
62863;SDS011;48954;59.950;11.014;2022-11-15T02:31:08;7.80;;;3.30;;
62863;SDS011;48954;59.950;11.014;2022-11-15T02:42:44;5.70;;;3.10;;
62863;SDS011;48954;59.950;11.014;2022-11-15T02:45:21;5.10;;;2.90;;
62863;SDS011;48954;59.950;11.014;2022-11-15T02:47:55;5.60;;;2.70;;
62863;SDS011;48954;59.950;11.014;2022-11-15T02:50:29;2.60;;;1.20;;
62863;SDS011;48954;59.950;11.014;2022-11-15T02:53:07;4.30;;;1.80;;
62863;SDS011;48954;59.950;11.014;2022-11-15T02:55:38;3.10;;;1.40;;
62863;SDS011;48954;59.950;11.014;2022-11-15T02:58:27;5.40;;;1.90;;
62863;SDS011;48954;59.950;11.014;2022-11-15T03:06:50;3.10;;;1.00;;
62863;SDS011;48954;59.950;11.014;2022-11-15T03:09:43;5.70;;;1.60;;
62863;SDS011;48954;59.950;11.014;2022-11-15T03:14:50;2.10;;;1.00;;
62863;SDS011;48954;59.950;11.014;2022-11-15T03:18:06;1.60;;;0.80;;
62863;SDS011;48954;59.950;11.014;2022-11-15T03:20:48;1.90;;;1.00;;
62863;SDS011;48954;59.950;11.014;2022-11-15T03:23:17;2.40;;;1.20;;
62863;SDS011;48954;59.950;11.014;2022-11-15T03:25:47;1.40;;;0.50;;
62863;SDS011;48954;59.950;11.014;2022-11-15T03:31:41;2.00;;;0.60;;
62863;SDS011;48954;59.950;11.014;2022-11-15T03:34:27;2.30;;;0.70;;
62863;SDS011;48954;59.950;11.014;2022-11-15T03:37:10;2.00;;;1.00;;
62863;SDS011;48954;59.950;11.014;2022-11-15T03:39:45;2.40;;;1.10;;
62863;SDS011;48954;59.950;11.014;2022-11-15T03:42:36;2.30;;;1.10;;
62863;SDS011;48954;59.950;11.014;2022-11-15T03:45:16;2.10;;;0.70;;
62863;SDS011;48954;59.950;11.014;2022-11-15T03:50:40;0.90;;;0.40;;
62863;SDS011;48954;59.950;11.014;2022-11-15T03:53:10;1.80;;;0.90;;
62863;SDS011;48954;59.950;11.014;2022-11-15T03:55:47;1.90;;;0.90;;
62863;SDS011;48954;59.950;11.014;2022-11-15T03:58:18;1.90;;;1.00;;
62863;SDS011;48954;59.950;11.014;2022-11-15T04:00:51;2.50;;;1.10;;
62863;SDS011;48954;59.950;11.014;2022-11-15T04:03:21;2.20;;;1.10;;
62863;SDS011;48954;59.950;11.014;2022-11-15T04:05:49;2.40;;;1.30;;
62863;SDS011;48954;59.950;11.014;2022-11-15T04:08:15;3.80;;;1.60;;
62863;SDS011;48954;59.950;11.014;2022-11-15T04:10:42;2.10;;;1.10;;
62863;SDS011;48954;59.950;11.014;2022-11-15T04:13:15;2.40;;;1.20;;
62863;SDS011;48954;59.950;11.014;2022-11-15T04:15:46;4.40;;;1.70;;
62863;SDS011;48954;59.950;11.014;2022-11-15T04:18:24;4.30;;;1.60;;
62863;SDS011;48954;59.950;11.014;2022-11-15T04:20:53;2.30;;;1.00;;
62863;SDS011;48954;59.950;11.014;2022-11-15T04:23:34;5.20;;;1.80;;
62863;SDS011;48954;59.950;11.014;2022-11-15T04:26:03;2.90;;;1.40;;
62863;SDS011;48954;59.950;11.014;2022-11-15T04:28:45;3.50;;;1.40;;
62863;SDS011;48954;59.950;11.014;2022-11-15T04:31:14;3.20;;;1.50;;
62863;SDS011;48954;59.950;11.014;2022-11-15T04:33:43;3.10;;;1.40;;
62863;SDS011;48954;59.950;11.014;2022-11-15T04:36:13;3.10;;;1.90;;
62863;SDS011;48954;59.950;11.014;2022-11-15T04:38:46;4.10;;;1.80;;
62863;SDS011;48954;59.950;11.014;2022-11-15T04:43:46;5.30;;;1.80;;
62863;SDS011;48954;59.950;11.014;2022-11-15T04:46:13;2.20;;;1.20;;
62863;SDS011;48954;59.950;11.014;2022-11-15T04:48:41;2.50;;;0.90;;
62863;SDS011;48954;59.950;11.014;2022-11-15T04:51:23;2.80;;;1.50;;
62863;SDS011;48954;59.950;11.014;2022-11-15T04:53:54;2.10;;;1.10;;
62863;SDS011;48954;59.950;11.014;2022-11-15T04:56:24;5.20;;;1.10;;
62863;SDS011;48954;59.950;11.014;2022-11-15T04:59:23;3.50;;;1.70;;
62863;SDS011;48954;59.950;11.014;2022-11-15T05:01:54;1.90;;;0.90;;
62863;SDS011;48954;59.950;11.014;2022-11-15T05:04:25;2.10;;;0.90;;
62863;SDS011;48954;59.950;11.014;2022-11-15T05:07:13;1.60;;;0.80;;
62863;SDS011;48954;59.950;11.014;2022-11-15T05:10:10;2.20;;;1.00;;
62863;SDS011;48954;59.950;11.014;2022-11-15T05:12:51;1.90;;;1.00;;
62863;SDS011;48954;59.950;11.014;2022-11-15T05:15:20;2.00;;;1.00;;
62863;SDS011;48954;59.950;11.014;2022-11-15T05:17:47;1.40;;;0.70;;
62863;SDS011;48954;59.950;11.014;2022-11-15T05:20:16;1.60;;;0.90;;
62863;SDS011;48954;59.950;11.014;2022-11-15T05:22:46;2.50;;;1.00;;
62863;SDS011;48954;59.950;11.014;2022-11-15T05:25:18;2.00;;;0.90;;
62863;SDS011;48954;59.950;11.014;2022-11-15T05:28:08;1.80;;;0.90;;
62863;SDS011;48954;59.950;11.014;2022-11-15T05:30:40;1.50;;;0.60;;
62863;SDS011;48954;59.950;11.014;2022-11-15T05:33:16;1.40;;;0.60;;
62863;SDS011;48954;59.950;11.014;2022-11-15T05:36:07;2.50;;;1.20;;
62863;SDS011;48954;59.950;11.014;2022-11-15T05:38:55;2.50;;;1.30;;
62863;SDS011;48954;59.950;11.014;2022-11-15T05:41:27;2.40;;;1.10;;
62863;SDS011;48954;59.950;11.014;2022-11-15T05:43:59;2.10;;;0.90;;
62863;SDS011;48954;59.950;11.014;2022-11-15T05:46:28;3.00;;;1.40;;
62863;SDS011;48954;59.950;11.014;2022-11-15T05:49:25;2.10;;;1.00;;
62863;SDS011;48954;59.950;11.014;2022-11-15T05:51:59;3.10;;;1.00;;
62863;SDS011;48954;59.950;11.014;2022-11-15T05:54:32;3.60;;;1.00;;
62863;SDS011;48954;59.950;11.014;2022-11-15T05:57:06;3.30;;;1.50;;
62863;SDS011;48954;59.950;11.014;2022-11-15T05:59:40;2.30;;;1.30;;
62863;SDS011;48954;59.950;11.014;2022-11-15T06:02:14;2.00;;;1.00;;
62863;SDS011;48954;59.950;11.014;2022-11-15T06:04:42;3.10;;;1.20;;
62863;SDS011;48954;59.950;11.014;2022-11-15T06:07:09;5.20;;;2.00;;
62863;SDS011;48954;59.950;11.014;2022-11-15T06:09:36;2.60;;;1.20;;
62863;SDS011;48954;59.950;11.014;2022-11-15T06:12:05;1.60;;;0.80;;
62863;SDS011;48954;59.950;11.014;2022-11-15T06:14:37;3.60;;;1.70;;
62863;SDS011;48954;59.950;11.014;2022-11-15T06:17:07;3.70;;;1.90;;
62863;SDS011;48954;59.950;11.014;2022-11-15T06:19:33;3.70;;;1.90;;
62863;SDS011;48954;59.950;11.014;2022-11-15T06:22:00;3.70;;;2.00;;
62863;SDS011;48954;59.950;11.014;2022-11-15T06:24:27;2.20;;;1.30;;
62863;SDS011;48954;59.950;11.014;2022-11-15T06:26:55;3.40;;;1.90;;
62863;SDS011;48954;59.950;11.014;2022-11-15T06:29:26;2.80;;;1.50;;
62863;SDS011;48954;59.950;11.014;2022-11-15T06:31:54;2.60;;;1.50;;
62863;SDS011;48954;59.950;11.014;2022-11-15T06:34:37;4.70;;;2.50;;
62863;SDS011;48954;59.950;11.014;2022-11-15T06:37:05;4.60;;;2.70;;
62863;SDS011;48954;59.950;11.014;2022-11-15T06:39:33;4.30;;;2.50;;
62863;SDS011;48954;59.950;11.014;2022-11-15T06:42:17;3.90;;;2.30;;
62863;SDS011;48954;59.950;11.014;2022-11-15T06:44:46;4.10;;;2.20;;
62863;SDS011;48954;59.950;11.014;2022-11-15T06:47:27;4.60;;;2.70;;
62863;SDS011;48954;59.950;11.014;2022-11-15T06:50:08;6.70;;;3.40;;
62863;SDS011;48954;59.950;11.014;2022-11-15T06:52:49;6.20;;;2.60;;
62863;SDS011;48954;59.950;11.014;2022-11-15T06:55:23;3.30;;;1.60;;
62863;SDS011;48954;59.950;11.014;2022-11-15T06:58:00;4.30;;;1.90;;
62863;SDS011;48954;59.950;11.014;2022-11-15T07:00:29;4.90;;;2.00;;
62863;SDS011;48954;59.950;11.014;2022-11-15T07:02:59;3.60;;;2.10;;
62863;SDS011;48954;59.950;11.014;2022-11-15T07:05:28;3.60;;;1.90;;
62863;SDS011;48954;59.950;11.014;2022-11-15T07:08:09;3.40;;;1.80;;
62863;SDS011;48954;59.950;11.014;2022-11-15T07:10:41;2.30;;;1.10;;
62863;SDS011;48954;59.950;11.014;2022-11-15T07:13:11;5.10;;;2.30;;
62863;SDS011;48954;59.950;11.014;2022-11-15T07:15:43;3.40;;;1.70;;
62863;SDS011;48954;59.950;11.014;2022-11-15T07:18:11;3.40;;;1.80;;
62863;SDS011;48954;59.950;11.014;2022-11-15T07:20:51;5.30;;;2.70;;
62863;SDS011;48954;59.950;11.014;2022-11-15T07:23:20;2.10;;;1.20;;
62863;SDS011;48954;59.950;11.014;2022-11-15T07:25:50;3.50;;;1.30;;
62863;SDS011;48954;59.950;11.014;2022-11-15T07:28:43;3.10;;;1.60;;
62863;SDS011;48954;59.950;11.014;2022-11-15T07:31:12;5.90;;;2.00;;
62863;SDS011;48954;59.950;11.014;2022-11-15T07:33:42;2.40;;;1.10;;
62863;SDS011;48954;59.950;11.014;2022-11-15T07:36:09;3.40;;;1.50;;
62863;SDS011;48954;59.950;11.014;2022-11-15T07:38:40;3.20;;;1.60;;
62863;SDS011;48954;59.950;11.014;2022-11-15T07:41:09;3.40;;;1.90;;
62863;SDS011;48954;59.950;11.014;2022-11-15T07:43:53;4.40;;;1.60;;
62863;SDS011;48954;59.950;11.014;2022-11-15T07:46:28;4.30;;;1.60;;
62863;SDS011;48954;59.950;11.014;2022-11-15T07:49:00;6.10;;;1.60;;
62863;SDS011;48954;59.950;11.014;2022-11-15T07:51:27;5.10;;;1.80;;
62863;SDS011;48954;59.950;11.014;2022-11-15T07:54:06;3.90;;;1.70;;
62863;SDS011;48954;59.950;11.014;2022-11-15T07:56:54;3.20;;;1.60;;
62863;SDS011;48954;59.950;11.014;2022-11-15T07:59:23;3.70;;;1.70;;
62863;SDS011;48954;59.950;11.014;2022-11-15T08:01:51;3.30;;;1.50;;
62863;SDS011;48954;59.950;11.014;2022-11-15T08:04:33;3.00;;;1.50;;
62863;SDS011;48954;59.950;11.014;2022-11-15T08:07:14;4.00;;;1.70;;
62863;SDS011;48954;59.950;11.014;2022-11-15T08:10:15;6.20;;;2.30;;
62863;SDS011;48954;59.950;11.014;2022-11-15T08:13:09;5.60;;;2.40;;
62863;SDS011;48954;59.950;11.014;2022-11-15T08:16:00;4.80;;;2.60;;
62863;SDS011;48954;59.950;11.014;2022-11-15T08:19:06;6.20;;;2.20;;
62863;SDS011;48954;59.950;11.014;2022-11-15T08:21:47;5.30;;;2.40;;
62863;SDS011;48954;59.950;11.014;2022-11-15T08:24:19;6.40;;;2.80;;
62863;SDS011;48954;59.950;11.014;2022-11-15T08:27:03;4.50;;;1.80;;
62863;SDS011;48954;59.950;11.014;2022-11-15T08:29:31;5.70;;;2.70;;
62863;SDS011;48954;59.950;11.014;2022-11-15T08:32:01;6.90;;;2.40;;
62863;SDS011;48954;59.950;11.014;2022-11-15T08:34:32;5.30;;;2.50;;
62863;SDS011;48954;59.950;11.014;2022-11-15T08:37:03;4.50;;;2.30;;
62863;SDS011;48954;59.950;11.014;2022-11-15T08:40:00;4.60;;;1.40;;
62863;SDS011;48954;59.950;11.014;2022-11-15T08:42:28;6.10;;;2.20;;
62863;SDS011;48954;59.950;11.014;2022-11-15T08:45:09;4.20;;;1.80;;
62863;SDS011;48954;59.950;11.014;2022-11-15T08:47:40;3.50;;;1.40;;
62863;SDS011;48954;59.950;11.014;2022-11-15T08:50:07;3.70;;;1.60;;
62863;SDS011;48954;59.950;11.014;2022-11-15T08:52:40;2.80;;;1.20;;
62863;SDS011;48954;59.950;11.014;2022-11-15T08:55:07;2.80;;;1.40;;
62863;SDS011;48954;59.950;11.014;2022-11-15T08:57:38;2.50;;;1.10;;
62863;SDS011;48954;59.950;11.014;2022-11-15T09:00:12;2.40;;;1.50;;
62863;SDS011;48954;59.950;11.014;2022-11-15T09:02:40;2.90;;;1.60;;
62863;SDS011;48954;59.950;11.014;2022-11-15T09:05:47;3.20;;;1.40;;
62863;SDS011;48954;59.950;11.014;2022-11-15T09:08:15;3.50;;;1.50;;
62863;SDS011;48954;59.950;11.014;2022-11-15T09:10:56;6.70;;;1.50;;
62863;SDS011;48954;59.950;11.014;2022-11-15T09:13:30;2.50;;;1.40;;
62863;SDS011;48954;59.950;11.014;2022-11-15T09:15:58;2.90;;;1.30;;
62863;SDS011;48954;59.950;11.014;2022-11-15T09:18:28;3.70;;;1.40;;
62863;SDS011;48954;59.950;11.014;2022-11-15T09:21:01;3.60;;;1.40;;
62863;SDS011;48954;59.950;11.014;2022-11-15T09:23:29;2.40;;;0.90;;
62863;SDS011;48954;59.950;11.014;2022-11-15T09:25:59;3.30;;;1.10;;
62863;SDS011;48954;59.950;11.014;2022-11-15T09:28:30;4.30;;;1.10;;
62863;SDS011;48954;59.950;11.014;2022-11-15T09:30:59;3.40;;;0.90;;
62863;SDS011;48954;59.950;11.014;2022-11-15T09:33:43;2.40;;;0.50;;
62863;SDS011;48954;59.950;11.014;2022-11-15T09:36:12;2.60;;;1.00;;
62863;SDS011;48954;59.950;11.014;2022-11-15T09:38:54;3.60;;;1.20;;
62863;SDS011;48954;59.950;11.014;2022-11-15T09:41:28;2.10;;;1.00;;
62863;SDS011;48954;59.950;11.014;2022-11-15T09:44:47;1.90;;;1.00;;
62863;SDS011;48954;59.950;11.014;2022-11-15T09:50:41;2.40;;;1.40;;
62863;SDS011;48954;59.950;11.014;2022-11-15T09:53:26;3.00;;;1.10;;
62863;SDS011;48954;59.950;11.014;2022-11-15T09:56:19;1.40;;;0.90;;
62863;SDS011;48954;59.950;11.014;2022-11-15T10:01:46;2.50;;;0.80;;
62863;SDS011;48954;59.950;11.014;2022-11-15T10:04:25;1.20;;;0.70;;
62863;SDS011;48954;59.950;11.014;2022-11-15T10:12:50;2.10;;;0.70;;
62863;SDS011;48954;59.950;11.014;2022-11-15T10:15:19;1.10;;;0.50;;
62863;SDS011;48954;59.950;11.014;2022-11-15T10:20:32;0.70;;;0.50;;
62863;SDS011;48954;59.950;11.014;2022-11-15T10:23:10;1.20;;;0.40;;
62863;SDS011;48954;59.950;11.014;2022-11-15T10:25:39;0.90;;;0.50;;
62863;SDS011;48954;59.950;11.014;2022-11-15T10:28:16;1.60;;;0.70;;
62863;SDS011;48954;59.950;11.014;2022-11-15T10:30:51;1.40;;;0.80;;
62863;SDS011;48954;59.950;11.014;2022-11-15T10:41:31;1.20;;;0.50;;
62863;SDS011;48954;59.950;11.014;2022-11-15T10:46:39;1.10;;;0.50;;
62863;SDS011;48954;59.950;11.014;2022-11-15T10:51:55;1.60;;;0.30;;
62863;SDS011;48954;59.950;11.014;2022-11-15T10:57:14;1.30;;;0.70;;
62863;SDS011;48954;59.950;11.014;2022-11-15T10:59:51;1.20;;;0.60;;
62863;SDS011;48954;59.950;11.014;2022-11-15T11:02:28;0.70;;;0.40;;
62863;SDS011;48954;59.950;11.014;2022-11-15T11:05:24;3.00;;;0.80;;
62863;SDS011;48954;59.950;11.014;2022-11-15T11:07:56;0.60;;;0.40;;
62863;SDS011;48954;59.950;11.014;2022-11-15T11:10:26;2.10;;;0.90;;
62863;SDS011;48954;59.950;11.014;2022-11-15T11:13:04;1.90;;;0.60;;
62863;SDS011;48954;59.950;11.014;2022-11-15T11:15:47;1.40;;;0.50;;
62863;SDS011;48954;59.950;11.014;2022-11-15T11:24:34;1.90;;;0.70;;
62863;SDS011;48954;59.950;11.014;2022-11-15T11:30:03;2.00;;;0.80;;
62863;SDS011;48954;59.950;11.014;2022-11-15T11:32:55;1.40;;;0.80;;
62863;SDS011;48954;59.950;11.014;2022-11-15T11:35:38;1.30;;;0.60;;
62863;SDS011;48954;59.950;11.014;2022-11-15T11:47:22;3.90;;;1.10;;
62863;SDS011;48954;59.950;11.014;2022-11-15T11:53:15;1.80;;;0.70;;
62863;SDS011;48954;59.950;11.014;2022-11-15T11:55:56;0.70;;;0.40;;
62863;SDS011;48954;59.950;11.014;2022-11-15T11:58:39;2.30;;;0.70;;
62863;SDS011;48954;59.950;11.014;2022-11-15T12:07:20;1.30;;;0.60;;
62863;SDS011;48954;59.950;11.014;2022-11-15T12:13:09;3.00;;;0.90;;
62863;SDS011;48954;59.950;11.014;2022-11-15T12:15:47;2.20;;;1.10;;
62863;SDS011;48954;59.950;11.014;2022-11-15T12:18:34;1.50;;;0.70;;
62863;SDS011;48954;59.950;11.014;2022-11-15T12:21:19;1.30;;;0.60;;
62863;SDS011;48954;59.950;11.014;2022-11-15T12:23:51;1.60;;;0.70;;
62863;SDS011;48954;59.950;11.014;2022-11-15T12:26:25;1.00;;;0.30;;
62863;SDS011;48954;59.950;11.014;2022-11-15T12:29:09;3.80;;;0.70;;
62863;SDS011;48954;59.950;11.014;2022-11-15T12:31:41;2.10;;;0.70;;
62863;SDS011;48954;59.950;11.014;2022-11-15T12:34:16;1.80;;;0.70;;
62863;SDS011;48954;59.950;11.014;2022-11-15T12:37:52;2.50;;;0.60;;
62863;SDS011;48954;59.950;11.014;2022-11-15T12:40:21;1.80;;;0.80;;
62863;SDS011;48954;59.950;11.014;2022-11-15T12:43:04;2.20;;;0.80;;
62863;SDS011;48954;59.950;11.014;2022-11-15T12:45:51;1.30;;;0.50;;
62863;SDS011;48954;59.950;11.014;2022-11-15T13:13:02;1.90;;;1.10;;
62863;SDS011;48954;59.950;11.014;2022-11-15T13:15:45;6.80;;;1.30;;
62863;SDS011;48954;59.950;11.014;2022-11-15T13:21:23;3.70;;;1.30;;
62863;SDS011;48954;59.950;11.014;2022-11-15T13:23:52;4.10;;;1.20;;
62863;SDS011;48954;59.950;11.014;2022-11-15T13:26:25;2.10;;;0.90;;
62863;SDS011;48954;59.950;11.014;2022-11-15T13:29:15;3.90;;;0.90;;
62863;SDS011;48954;59.950;11.014;2022-11-15T13:32:00;4.70;;;1.20;;
62863;SDS011;48954;59.950;11.014;2022-11-15T13:34:44;2.50;;;0.90;;
62863;SDS011;48954;59.950;11.014;2022-11-15T13:37:28;3.60;;;1.10;;
62863;SDS011;48954;59.950;11.014;2022-11-15T13:40:27;4.30;;;1.40;;
62863;SDS011;48954;59.950;11.014;2022-11-15T13:43:43;6.00;;;1.60;;
62863;SDS011;48954;59.950;11.014;2022-11-15T13:46:24;4.60;;;1.40;;
62863;SDS011;48954;59.950;11.014;2022-11-15T13:49:13;6.40;;;2.10;;
62863;SDS011;48954;59.950;11.014;2022-11-15T13:51:43;4.50;;;1.20;;
62863;SDS011;48954;59.950;11.014;2022-11-15T13:55:01;1.60;;;0.80;;
62863;SDS011;48954;59.950;11.014;2022-11-15T13:57:51;2.80;;;0.80;;
62863;SDS011;48954;59.950;11.014;2022-11-15T14:00:25;3.70;;;0.90;;
62863;SDS011;48954;59.950;11.014;2022-11-15T14:08:39;2.70;;;0.90;;
62863;SDS011;48954;59.950;11.014;2022-11-15T14:14:14;1.80;;;0.70;;
62863;SDS011;48954;59.950;11.014;2022-11-15T14:16:57;1.30;;;0.60;;
62863;SDS011;48954;59.950;11.014;2022-11-15T14:19:50;2.20;;;1.00;;
62863;SDS011;48954;59.950;11.014;2022-11-15T14:22:36;2.30;;;0.60;;
62863;SDS011;48954;59.950;11.014;2022-11-15T14:25:37;1.80;;;1.10;;
62863;SDS011;48954;59.950;11.014;2022-11-15T14:31:16;3.30;;;1.20;;
62863;SDS011;48954;59.950;11.014;2022-11-15T14:33:50;2.00;;;0.90;;
62863;SDS011;48954;59.950;11.014;2022-11-15T14:36:30;3.20;;;0.90;;
62863;SDS011;48954;59.950;11.014;2022-11-15T14:39:11;2.80;;;0.90;;
62863;SDS011;48954;59.950;11.014;2022-11-15T14:42:12;2.80;;;1.20;;
62863;SDS011;48954;59.950;11.014;2022-11-15T14:45:13;1.70;;;0.60;;
62863;SDS011;48954;59.950;11.014;2022-11-15T14:48:16;3.30;;;1.10;;
62863;SDS011;48954;59.950;11.014;2022-11-15T14:53:57;2.70;;;0.90;;
62863;SDS011;48954;59.950;11.014;2022-11-15T14:56:37;2.20;;;1.00;;
62863;SDS011;48954;59.950;11.014;2022-11-15T14:59:30;3.40;;;0.90;;
62863;SDS011;48954;59.950;11.014;2022-11-15T15:02:18;2.30;;;1.20;;
62863;SDS011;48954;59.950;11.014;2022-11-15T15:05:35;3.00;;;1.10;;
62863;SDS011;48954;59.950;11.014;2022-11-15T15:08:22;3.80;;;1.50;;
62863;SDS011;48954;59.950;11.014;2022-11-15T15:11:44;3.30;;;1.20;;
62863;SDS011;48954;59.950;11.014;2022-11-15T15:14:45;2.50;;;0.80;;
62863;SDS011;48954;59.950;11.014;2022-11-15T15:17:52;1.60;;;0.70;;
62863;SDS011;48954;59.950;11.014;2022-11-15T15:20:45;2.60;;;0.90;;
62863;SDS011;48954;59.950;11.014;2022-11-15T15:23:33;1.80;;;0.90;;
62863;SDS011;48954;59.950;11.014;2022-11-15T15:26:00;3.00;;;0.90;;
62863;SDS011;48954;59.950;11.014;2022-11-15T15:28:33;2.00;;;1.10;;
62863;SDS011;48954;59.950;11.014;2022-11-15T15:31:14;2.20;;;0.90;;
62863;SDS011;48954;59.950;11.014;2022-11-15T15:33:55;2.90;;;1.10;;
62863;SDS011;48954;59.950;11.014;2022-11-15T15:36:39;2.30;;;1.00;;
62863;SDS011;48954;59.950;11.014;2022-11-15T15:39:23;2.00;;;0.90;;
62863;SDS011;48954;59.950;11.014;2022-11-15T15:42:32;3.70;;;1.40;;
62863;SDS011;48954;59.950;11.014;2022-11-15T15:45:50;3.40;;;1.00;;
62863;SDS011;48954;59.950;11.014;2022-11-15T15:48:53;1.50;;;0.50;;
62863;SDS011;48954;59.950;11.014;2022-11-15T15:55:11;3.60;;;1.50;;
62863;SDS011;48954;59.950;11.014;2022-11-15T15:58:33;2.50;;;1.20;;
62863;SDS011;48954;59.950;11.014;2022-11-15T16:01:34;1.60;;;0.80;;
62863;SDS011;48954;59.950;11.014;2022-11-15T16:04:19;5.40;;;0.80;;
62863;SDS011;48954;59.950;11.014;2022-11-15T16:12:56;1.60;;;1.00;;
62863;SDS011;48954;59.950;11.014;2022-11-15T16:16:04;3.00;;;1.50;;
62863;SDS011;48954;59.950;11.014;2022-11-15T16:18:54;2.70;;;1.20;;
62863;SDS011;48954;59.950;11.014;2022-11-15T16:21:40;2.10;;;1.00;;
62863;SDS011;48954;59.950;11.014;2022-11-15T16:24:07;1.40;;;0.70;;
62863;SDS011;48954;59.950;11.014;2022-11-15T16:26:40;1.60;;;0.80;;
62863;SDS011;48954;59.950;11.014;2022-11-15T16:29:20;2.30;;;1.00;;
62863;SDS011;48954;59.950;11.014;2022-11-15T16:31:49;3.70;;;1.60;;
62863;SDS011;48954;59.950;11.014;2022-11-15T16:34:19;3.30;;;1.10;;
62863;SDS011;48954;59.950;11.014;2022-11-15T16:36:51;2.20;;;0.90;;
62863;SDS011;48954;59.950;11.014;2022-11-15T16:42:57;1.80;;;1.10;;
62863;SDS011;48954;59.950;11.014;2022-11-15T16:45:38;1.50;;;0.80;;
62863;SDS011;48954;59.950;11.014;2022-11-15T16:51:03;5.60;;;1.70;;
62863;SDS011;48954;59.950;11.014;2022-11-15T16:53:31;6.10;;;1.30;;
62863;SDS011;48954;59.950;11.014;2022-11-15T16:56:25;2.60;;;1.10;;
62863;SDS011;48954;59.950;11.014;2022-11-15T16:58:55;4.50;;;1.70;;
62863;SDS011;48954;59.950;11.014;2022-11-15T17:01:32;3.10;;;1.30;;
62863;SDS011;48954;59.950;11.014;2022-11-15T17:04:09;3.60;;;1.30;;
62863;SDS011;48954;59.950;11.014;2022-11-15T17:06:36;4.40;;;1.60;;
62863;SDS011;48954;59.950;11.014;2022-11-15T17:09:10;4.40;;;1.50;;
62863;SDS011;48954;59.950;11.014;2022-11-15T17:11:40;3.20;;;1.40;;
62863;SDS011;48954;59.950;11.014;2022-11-15T17:14:08;3.60;;;1.70;;
62863;SDS011;48954;59.950;11.014;2022-11-15T17:16:35;5.40;;;1.60;;
62863;SDS011;48954;59.950;11.014;2022-11-15T17:19:03;3.90;;;1.50;;
62863;SDS011;48954;59.950;11.014;2022-11-15T17:21:33;4.30;;;2.20;;
62863;SDS011;48954;59.950;11.014;2022-11-15T17:24:01;5.50;;;2.00;;
62863;SDS011;48954;59.950;11.014;2022-11-15T17:26:31;3.50;;;1.60;;
62863;SDS011;48954;59.950;11.014;2022-11-15T17:28:59;7.90;;;2.50;;
62863;SDS011;48954;59.950;11.014;2022-11-15T17:31:29;5.60;;;2.80;;
62863;SDS011;48954;59.950;11.014;2022-11-15T17:34:03;4.70;;;1.40;;
62863;SDS011;48954;59.950;11.014;2022-11-15T17:36:30;3.80;;;1.70;;
62863;SDS011;48954;59.950;11.014;2022-11-15T17:38:57;5.30;;;1.80;;
62863;SDS011;48954;59.950;11.014;2022-11-15T17:41:24;5.40;;;2.10;;
62863;SDS011;48954;59.950;11.014;2022-11-15T17:43:51;7.70;;;2.80;;
62863;SDS011;48954;59.950;11.014;2022-11-15T17:46:18;2.50;;;1.10;;
62863;SDS011;48954;59.950;11.014;2022-11-15T17:48:46;6.70;;;2.90;;
62863;SDS011;48954;59.950;11.014;2022-11-15T17:51:15;6.00;;;2.40;;
62863;SDS011;48954;59.950;11.014;2022-11-15T17:53:58;5.50;;;2.20;;
62863;SDS011;48954;59.950;11.014;2022-11-15T17:56:27;7.90;;;2.80;;
62863;SDS011;48954;59.950;11.014;2022-11-15T17:58:57;8.90;;;3.30;;
62863;SDS011;48954;59.950;11.014;2022-11-15T18:01:26;16.70;;;3.80;;
62863;SDS011;48954;59.950;11.014;2022-11-15T18:04:00;9.30;;;2.90;;
62863;SDS011;48954;59.950;11.014;2022-11-15T18:06:29;6.00;;;2.40;;
62863;SDS011;48954;59.950;11.014;2022-11-15T18:08:59;6.40;;;2.50;;
62863;SDS011;48954;59.950;11.014;2022-11-15T18:11:36;6.10;;;2.10;;
62863;SDS011;48954;59.950;11.014;2022-11-15T18:14:11;4.90;;;2.10;;
62863;SDS011;48954;59.950;11.014;2022-11-15T18:16:40;6.40;;;2.00;;
62863;SDS011;48954;59.950;11.014;2022-11-15T18:19:09;3.70;;;2.00;;
62863;SDS011;48954;59.950;11.014;2022-11-15T18:21:37;8.70;;;3.50;;
62863;SDS011;48954;59.950;11.014;2022-11-15T18:24:10;5.50;;;1.90;;